Terminal Aerodrome Forecast
Issued by NWS

Home | Current Version | Previous Version | Text Only | Print | Product List | Glossary On
Versions: 1 2 3 4 5 6 7 8 9 10 11 12 13 14 15
471
FTPA31 PHFO 280559 AAA
TAFHMK
TAF AMD
PHMK 280559Z 2806/2906 04010G16KT P6SM FEW010 SCT025 BKN050
      TEMPO 2806/2808 4SM SHRA BKN015 OVC030
     FM282100 04014G22KT P6SM FEW025 SCT050=

USA.gov is the U.S. government's official web portal to all federal, state and local government web resources and services.